createdAt,value
2023-03-30T00:01:51.464Z,8.09
2023-03-30T00:04:18.089Z,8.09
2023-03-30T00:10:04.145Z,8.06
2023-03-30T00:12:54.696Z,8.05
2023-03-30T00:18:18.975Z,8.05
2023-03-30T00:20:55.050Z,8.01
2023-03-30T00:23:28.664Z,8.02
2023-03-30T00:25:59.220Z,8.00
2023-03-30T00:32:14.713Z,7.97
2023-03-30T00:34:41.231Z,7.99
2023-03-30T00:37:14.604Z,7.97
2023-03-30T00:42:43.703Z,7.97
2023-03-30T00:49:04.222Z,7.98
2023-03-30T00:51:23.196Z,7.97
2023-03-30T00:56:52.568Z,7.99
2023-03-30T01:02:34.077Z,8.05
2023-03-30T01:05:03.318Z,8.08
2023-03-30T01:07:31.982Z,8.12
2023-03-30T01:10:00.260Z,8.11
2023-03-30T01:12:27.288Z,8.10
2023-03-30T01:14:56.115Z,8.11
2023-03-30T01:17:32.687Z,8.09
2023-03-30T01:20:29.681Z,8.13
2023-03-30T01:23:22.058Z,8.15
2023-03-30T01:26:12.251Z,8.13
2023-03-30T01:28:47.811Z,8.16
2023-03-30T01:31:36.747Z,8.24
2023-03-30T01:37:35.939Z,8.24
2023-03-30T01:44:03.401Z,8.24
2023-03-30T01:47:12.153Z,8.21
2023-03-30T01:49:44.216Z,8.23
2023-03-30T01:52:31.863Z,8.24
2023-03-30T02:00:34.938Z,8.36
2023-03-30T02:03:12.861Z,8.39
2023-03-30T02:05:50.471Z,8.40
2023-03-30T02:08:23.409Z,8.37
2023-03-30T02:11:01.558Z,8.39
2023-03-30T02:19:25.694Z,8.50
2023-03-30T02:21:57.598Z,8.49
2023-03-30T02:25:00.488Z,8.52
2023-03-30T02:27:47.269Z,8.44
2023-03-30T02:30:18.508Z,8.48
2023-03-30T02:32:50.774Z,8.50
2023-03-30T02:35:50.392Z,8.48
2023-03-30T02:38:41.180Z,8.55
2023-03-30T02:41:31.307Z,8.54
2023-03-30T02:44:05.059Z,8.58
2023-03-30T02:46:37.526Z,8.59
2023-03-30T02:50:01.961Z,8.61
2023-03-30T02:52:30.196Z,8.66
2023-03-30T02:55:20.540Z,8.63
2023-03-30T02:57:53.302Z,8.67
2023-03-30T03:00:30.426Z,8.64
2023-03-30T03:03:25.270Z,8.63
2023-03-30T03:05:54.752Z,8.71
2023-03-30T03:08:30.509Z,8.76
2023-03-30T03:13:42.536Z,8.77
2023-03-30T03:16:17.876Z,8.70
2023-03-30T03:19:01.590Z,8.67
2023-03-30T03:21:43.957Z,8.64
2023-03-30T03:27:04.691Z,8.66
2023-03-30T03:29:36.462Z,8.65
2023-03-30T03:32:08.304Z,8.70
2023-03-30T03:34:40.340Z,8.73
2023-03-30T03:39:52.796Z,8.69
2023-03-30T03:42:30.247Z,8.70
2023-03-30T03:47:42.837Z,8.76
2023-03-30T03:55:44.009Z,8.66
2023-03-30T03:58:10.227Z,8.64
2023-03-30T04:00:36.464Z,8.66
2023-03-30T04:03:02.729Z,8.67
2023-03-30T04:05:29.161Z,8.66
2023-03-30T04:07:55.361Z,8.57
2023-03-30T04:10:21.580Z,8.55
2023-03-30T04:12:47.785Z,8.63
2023-03-30T04:15:15.665Z,8.57
2023-03-30T04:17:41.939Z,8.53
2023-03-30T04:20:08.470Z,8.57
2023-03-30T04:22:34.698Z,8.51
2023-03-30T04:25:00.916Z,8.48
2023-03-30T04:27:27.117Z,8.47
2023-03-30T04:29:53.341Z,8.48
2023-03-30T04:32:19.584Z,8.45
2023-03-30T04:34:46.527Z,8.48
2023-03-30T04:37:12.740Z,8.49
2023-03-30T04:39:39.013Z,8.53
2023-03-30T04:42:05.270Z,8.53
2023-03-30T04:44:31.639Z,8.54
2023-03-30T04:46:57.861Z,8.61
2023-03-30T04:49:24.070Z,8.60
2023-03-30T04:51:50.351Z,8.56
2023-03-30T04:54:16.582Z,8.59
2023-03-30T04:56:42.887Z,8.55
2023-03-30T04:59:09.128Z,8.54
2023-03-30T05:01:35.427Z,8.53
2023-03-30T05:04:01.687Z,8.53
2023-03-30T05:06:27.926Z,8.53
2023-03-30T05:08:54.134Z,8.53
2023-03-30T05:11:20.377Z,8.57
2023-03-30T05:13:46.607Z,8.61
2023-03-30T05:16:12.806Z,8.63
2023-03-30T05:18:39.013Z,8.67
2023-03-30T05:21:05.447Z,8.67
2023-03-30T05:23:31.848Z,8.67
2023-03-30T05:25:58.116Z,8.66
2023-03-30T05:28:24.358Z,8.70
2023-03-30T05:30:54.017Z,8.74
2023-03-30T05:33:20.406Z,8.70
2023-03-30T05:35:46.676Z,8.73
2023-03-30T05:38:12.932Z,8.71
2023-03-30T05:40:39.143Z,8.74
2023-03-30T05:43:05.539Z,8.80
2023-03-30T05:45:31.736Z,8.82
2023-03-30T05:47:57.955Z,8.87
2023-03-30T05:50:24.169Z,8.85
2023-03-30T05:52:50.377Z,8.93
2023-03-30T05:55:16.584Z,8.98
2023-03-30T05:57:42.799Z,9.11
2023-03-30T06:00:09.197Z,9.40
2023-03-30T06:02:35.505Z,9.50
2023-03-30T06:05:01.992Z,9.52
2023-03-30T06:07:28.260Z,9.48
2023-03-30T06:09:54.468Z,9.40
2023-03-30T06:12:20.679Z,9.37
2023-03-30T06:14:46.876Z,9.38
2023-03-30T06:17:13.091Z,9.32
2023-03-30T06:19:39.303Z,9.28
2023-03-30T06:22:05.598Z,9.27
2023-03-30T06:24:31.804Z,9.26
2023-03-30T06:26:58.807Z,9.29
2023-03-30T06:29:25.024Z,9.37
2023-03-30T06:31:51.319Z,9.39
2023-03-30T06:34:17.586Z,9.43
2023-03-30T06:36:46.006Z,9.44
2023-03-30T06:39:13.064Z,9.42
2023-03-30T06:41:39.291Z,9.50
2023-03-30T06:44:05.700Z,9.53
2023-03-30T06:46:32.039Z,9.54
2023-03-30T06:48:58.240Z,9.57
2023-03-30T06:51:24.459Z,9.59
2023-03-30T06:53:50.689Z,9.55
2023-03-30T06:56:16.900Z,9.50
2023-03-30T06:58:43.120Z,9.54
2023-03-30T07:01:10.268Z,9.52
2023-03-30T07:03:36.507Z,9.55
2023-03-30T07:06:02.712Z,9.57
2023-03-30T07:08:28.932Z,9.56
2023-03-30T07:10:55.156Z,9.65
2023-03-30T07:13:21.364Z,9.68
2023-03-30T07:15:47.590Z,9.64
2023-03-30T07:18:14.098Z,9.61
2023-03-30T07:20:40.428Z,9.65
2023-03-30T07:23:06.656Z,9.65
2023-03-30T07:25:32.917Z,9.71
2023-03-30T07:27:59.135Z,9.74
2023-03-30T07:30:25.380Z,9.72
2023-03-30T07:32:51.789Z,9.81
2023-03-30T07:35:18.102Z,9.86
2023-03-30T07:37:44.334Z,9.92
2023-03-30T07:40:10.602Z,9.95
2023-03-30T07:42:36.840Z,9.98
2023-03-30T07:45:03.762Z,10.00
2023-03-30T07:47:29.998Z,10.14
2023-03-30T07:49:56.227Z,10.23
2023-03-30T07:52:22.436Z,10.40
2023-03-30T07:54:48.652Z,10.56
2023-03-30T07:57:14.976Z,10.59
2023-03-30T07:59:41.236Z,10.69
2023-03-30T08:02:14.430Z,10.73
2023-03-30T08:04:40.829Z,10.87
2023-03-30T08:07:07.471Z,10.90
2023-03-30T08:09:33.669Z,10.95
2023-03-30T08:11:59.960Z,11.09
2023-03-30T08:14:26.261Z,11.17
2023-03-30T08:16:52.888Z,11.16
2023-03-30T08:19:19.421Z,11.06
2023-03-30T08:21:45.632Z,11.08
2023-03-30T08:24:11.883Z,11.36
2023-03-30T08:26:38.101Z,12.07
2023-03-30T08:29:04.319Z,12.23
2023-03-30T08:31:30.573Z,12.00
2023-03-30T08:33:56.827Z,11.84
2023-03-30T08:36:23.042Z,11.76
2023-03-30T08:38:49.259Z,11.66
2023-03-30T08:41:35.698Z,11.72
2023-03-30T08:44:02.314Z,11.80
2023-03-30T08:46:28.596Z,11.91
2023-03-30T08:48:54.905Z,12.08
2023-03-30T08:51:21.057Z,12.24
2023-03-30T08:53:47.288Z,12.36
2023-03-30T08:56:17.313Z,12.42
2023-03-30T08:59:02.319Z,12.69
2023-03-30T09:01:30.796Z,12.94
2023-03-30T09:04:13.853Z,12.94
2023-03-30T09:06:43.414Z,12.95
2023-03-30T09:09:11.105Z,12.97
2023-03-30T09:11:37.314Z,13.09
2023-03-30T09:14:04.400Z,13.19
2023-03-30T09:16:57.075Z,13.42
2023-03-30T09:19:33.395Z,13.67
2023-03-30T09:21:59.598Z,13.62
2023-03-30T09:24:26.063Z,13.35
2023-03-30T09:26:54.752Z,13.23
2023-03-30T09:29:30.861Z,13.25
2023-03-30T09:32:13.036Z,13.27
2023-03-30T09:35:08.596Z,13.25
2023-03-30T09:37:34.794Z,13.30
2023-03-30T09:40:02.368Z,13.69
2023-03-30T09:42:38.908Z,14.61
2023-03-30T09:45:40.976Z,14.76
2023-03-30T09:48:07.998Z,14.28
2023-03-30T09:50:38.278Z,14.22
2023-03-30T09:53:05.336Z,14.07
2023-03-30T09:55:32.832Z,13.91
2023-03-30T09:58:16.443Z,13.67
2023-03-30T10:00:42.667Z,13.85
2023-03-30T10:03:18.442Z,14.02
2023-03-30T10:05:44.692Z,15.01
2023-03-30T10:08:18.284Z,15.22
2023-03-30T10:10:44.495Z,15.14
2023-03-30T10:13:10.644Z,15.11
2023-03-30T10:15:37.896Z,15.39
2023-03-30T10:18:06.546Z,15.37
2023-03-30T10:20:33.998Z,15.15
2023-03-30T10:23:01.558Z,14.81
2023-03-30T10:25:27.972Z,14.85
2023-03-30T10:27:55.261Z,14.81
2023-03-30T10:30:21.912Z,14.69
2023-03-30T10:32:48.238Z,15.03
2023-03-30T10:35:17.541Z,15.41
2023-03-30T10:37:44.472Z,15.17
2023-03-30T10:40:16.880Z,14.96
2023-03-30T10:42:43.088Z,14.67
2023-03-30T10:45:15.575Z,14.79
2023-03-30T10:47:51.054Z,14.94
2023-03-30T10:50:23.883Z,15.47
2023-03-30T10:52:59.162Z,15.37
2023-03-30T10:55:30.743Z,15.76
2023-03-30T10:57:56.922Z,15.98
2023-03-30T11:00:25.452Z,15.94
2023-03-30T11:03:03.918Z,16.11
2023-03-30T11:05:39.982Z,15.56
2023-03-30T11:08:06.699Z,16.30
2023-03-30T11:10:35.554Z,16.22
2023-03-30T11:13:04.811Z,15.77
2023-03-30T11:15:50.869Z,15.83
2023-03-30T11:18:18.011Z,15.72
2023-03-30T11:20:49.210Z,15.71
2023-03-30T11:23:17.623Z,15.79
2023-03-30T11:26:03.154Z,15.73
2023-03-30T11:28:38.741Z,15.22
2023-03-30T11:31:08.934Z,14.72
2023-03-30T11:33:39.585Z,14.21
2023-03-30T11:36:16.217Z,14.18
2023-03-30T11:38:44.060Z,14.18
2023-03-30T11:41:12.163Z,14.17
2023-03-30T11:43:38.382Z,14.25
2023-03-30T11:46:04.734Z,14.31
2023-03-30T11:48:44.240Z,14.18
2023-03-30T11:51:16.471Z,13.93
2023-03-30T11:53:48.541Z,13.80
2023-03-30T11:56:26.059Z,13.88
2023-03-30T11:59:00.927Z,13.88
2023-03-30T12:01:35.833Z,13.98
2023-03-30T12:04:09.478Z,13.87
2023-03-30T12:06:39.519Z,13.86
2023-03-30T12:09:14.665Z,13.80
2023-03-30T12:11:59.635Z,13.85
2023-03-30T12:14:47.186Z,13.80
2023-03-30T12:17:20.672Z,13.79
2023-03-30T12:19:56.518Z,14.59
2023-03-30T12:22:34.616Z,15.17
2023-03-30T12:25:06.345Z,15.78
2023-03-30T12:27:35.932Z,16.00
2023-03-30T12:30:11.405Z,16.30
2023-03-30T12:32:37.631Z,16.02
2023-03-30T12:35:23.890Z,16.15
2023-03-30T12:37:50.139Z,15.91
2023-03-30T12:40:19.452Z,16.23
2023-03-30T12:43:05.910Z,15.74
2023-03-30T12:45:33.394Z,15.46
2023-03-30T12:48:12.726Z,15.40
2023-03-30T12:51:00.469Z,15.48
2023-03-30T12:53:26.615Z,15.45
2023-03-30T12:56:05.035Z,15.28
2023-03-30T12:58:48.573Z,15.09
2023-03-30T13:01:20.402Z,14.77
2023-03-30T13:03:47.191Z,14.24
2023-03-30T13:06:18.657Z,13.95
2023-03-30T13:08:44.877Z,14.19
2023-03-30T13:11:18.013Z,14.75
2023-03-30T13:13:48.547Z,14.98
2023-03-30T13:16:14.871Z,15.15
2023-03-30T13:18:54.036Z,14.99
2023-03-30T13:21:24.306Z,15.17
2023-03-30T13:24:04.343Z,15.05
2023-03-30T13:26:38.932Z,15.39
2023-03-30T13:29:09.021Z,15.10
2023-03-30T13:31:50.510Z,14.83
2023-03-30T13:34:46.641Z,14.67
2023-03-30T13:37:20.903Z,14.49
2023-03-30T13:39:59.013Z,14.37
2023-03-30T13:42:25.191Z,14.28
2023-03-30T13:44:57.820Z,13.97
2023-03-30T13:47:24.012Z,13.62
2023-03-30T13:49:53.035Z,13.51
2023-03-30T13:52:20.786Z,13.36
2023-03-30T13:54:47.124Z,13.21
2023-03-30T13:57:14.645Z,13.04
2023-03-30T13:59:50.032Z,12.86
2023-03-30T14:02:16.405Z,12.76
2023-03-30T14:04:42.632Z,12.50
2023-03-30T14:07:15.736Z,12.30
2023-03-30T14:09:42.016Z,12.30
2023-03-30T14:12:08.218Z,12.15
2023-03-30T14:14:38.154Z,12.14
2023-03-30T14:17:11.954Z,12.08
2023-03-30T14:19:38.250Z,12.15
2023-03-30T14:22:24.360Z,12.25
2023-03-30T14:24:57.204Z,12.26
2023-03-30T14:27:23.419Z,12.19
2023-03-30T14:29:50.152Z,12.13
2023-03-30T14:32:16.764Z,12.12
2023-03-30T14:34:47.856Z,12.11
2023-03-30T14:37:14.074Z,12.21
2023-03-30T14:39:47.125Z,12.27
2023-03-30T14:42:16.348Z,12.45
2023-03-30T14:44:42.576Z,12.55
2023-03-30T14:47:08.803Z,12.62
2023-03-30T14:49:35.007Z,12.75
2023-03-30T14:52:01.781Z,12.96
2023-03-30T14:54:27.998Z,13.15
2023-03-30T14:57:00.699Z,13.31
2023-03-30T14:59:30.254Z,13.23
2023-03-30T15:01:56.519Z,13.22
2023-03-30T15:04:24.050Z,13.06
2023-03-30T15:06:50.388Z,12.94
2023-03-30T15:09:23.241Z,13.06
2023-03-30T15:11:51.352Z,13.00
2023-03-30T15:14:18.339Z,13.04
2023-03-30T15:16:44.748Z,13.18
2023-03-30T15:19:18.506Z,13.28
2023-03-30T15:21:46.172Z,13.15
2023-03-30T15:24:14.633Z,12.98
2023-03-30T15:26:42.070Z,13.13
2023-03-30T15:29:08.974Z,13.26
2023-03-30T15:31:35.234Z,13.33
2023-03-30T15:34:01.494Z,13.14
2023-03-30T15:36:33.654Z,12.93
2023-03-30T15:38:59.995Z,12.89
2023-03-30T15:41:44.538Z,12.84
2023-03-30T15:44:17.471Z,12.68
2023-03-30T15:46:43.858Z,12.66
2023-03-30T15:49:11.495Z,12.65
2023-03-30T15:51:47.736Z,12.72
2023-03-30T15:54:14.656Z,12.75
2023-03-30T15:57:01.119Z,12.79
2023-03-30T15:59:30.104Z,12.81
2023-03-30T16:01:56.525Z,12.87
2023-03-30T16:04:23.370Z,12.92
2023-03-30T16:06:49.688Z,12.84
2023-03-30T16:09:16.232Z,12.86
2023-03-30T16:11:42.454Z,12.88
2023-03-30T16:14:10.885Z,12.86
2023-03-30T16:16:37.205Z,12.83
2023-03-30T16:19:03.500Z,12.81
2023-03-30T16:21:29.713Z,12.76
2023-03-30T16:23:55.913Z,12.52
2023-03-30T16:26:22.108Z,12.38
2023-03-30T16:28:49.662Z,12.23
2023-03-30T16:31:25.026Z,12.25
2023-03-30T16:33:51.812Z,12.24
2023-03-30T16:36:18.731Z,12.25
2023-03-30T16:38:44.955Z,12.21
2023-03-30T16:41:15.960Z,12.10
2023-03-30T16:43:42.169Z,12.04
2023-03-30T16:46:09.691Z,12.09
2023-03-30T16:48:35.939Z,12.12
2023-03-30T16:51:02.223Z,12.12
2023-03-30T16:53:28.509Z,12.08
2023-03-30T16:55:54.713Z,12.06
2023-03-30T16:58:20.932Z,11.96
2023-03-30T17:00:47.847Z,11.81
2023-03-30T17:03:14.130Z,11.74
2023-03-30T17:05:40.376Z,11.56
2023-03-30T17:08:07.434Z,11.50
2023-03-30T17:10:34.788Z,11.45
2023-03-30T17:13:01.012Z,11.42
2023-03-30T17:15:27.707Z,11.40
2023-03-30T17:17:53.958Z,11.34
2023-03-30T17:20:21.803Z,11.36
2023-03-30T17:22:48.204Z,11.47
2023-03-30T17:25:14.482Z,11.44
2023-03-30T17:27:40.678Z,11.61
2023-03-30T17:30:18.620Z,11.48
2023-03-30T17:32:44.844Z,11.45
2023-03-30T17:35:11.087Z,11.24
2023-03-30T17:37:37.551Z,11.09
2023-03-30T17:40:13.041Z,11.00
2023-03-30T17:42:39.249Z,11.00
2023-03-30T17:45:05.634Z,10.84
2023-03-30T17:47:31.857Z,10.85
2023-03-30T17:49:58.102Z,10.79
2023-03-30T17:52:24.321Z,10.70
2023-03-30T17:54:50.551Z,10.68
2023-03-30T17:57:16.780Z,10.66
2023-03-30T17:59:43.007Z,10.57
2023-03-30T18:02:09.304Z,10.52
2023-03-30T18:04:35.602Z,10.57
2023-03-30T18:07:01.813Z,10.48
2023-03-30T18:09:28.023Z,10.44
2023-03-30T18:11:54.258Z,10.41
2023-03-30T18:14:20.470Z,10.35
2023-03-30T18:16:49.994Z,10.33
2023-03-30T18:19:16.525Z,10.31
2023-03-30T18:21:42.746Z,10.19
2023-03-30T18:24:08.945Z,10.10
2023-03-30T18:26:35.163Z,10.05
2023-03-30T18:29:01.360Z,10.03
2023-03-30T18:31:27.628Z,9.96
2023-03-30T18:33:53.912Z,9.93
2023-03-30T18:36:20.182Z,9.90
2023-03-30T18:38:46.392Z,9.88
2023-03-30T18:41:12.688Z,9.87
2023-03-30T18:43:38.946Z,9.85
2023-03-30T18:46:05.435Z,9.84
2023-03-30T18:48:31.789Z,9.77
2023-03-30T18:50:58.048Z,9.73
2023-03-30T18:53:25.087Z,9.79
2023-03-30T18:55:52.129Z,9.76
2023-03-30T18:58:22.091Z,9.78
2023-03-30T19:00:48.837Z,9.81
2023-03-30T19:03:15.373Z,9.91
2023-03-30T19:05:41.649Z,9.99
2023-03-30T19:08:14.647Z,10.04
2023-03-30T19:10:41.117Z,10.05
2023-03-30T19:13:07.346Z,10.05
2023-03-30T19:15:34.334Z,10.04
2023-03-30T19:18:00.941Z,10.06
2023-03-30T19:20:27.462Z,10.09
2023-03-30T19:22:53.725Z,10.07
2023-03-30T19:25:20.479Z,10.14
2023-03-30T19:28:01.361Z,10.14
2023-03-30T19:30:29.401Z,10.08
2023-03-30T19:32:56.360Z,10.08
2023-03-30T19:35:22.651Z,10.10
2023-03-30T19:37:48.884Z,10.14
2023-03-30T19:40:15.501Z,10.20
2023-03-30T19:42:42.269Z,10.22
2023-03-30T19:45:08.559Z,10.23
2023-03-30T19:47:34.817Z,10.19
2023-03-30T19:50:01.490Z,10.19
2023-03-30T19:52:27.720Z,10.19
2023-03-30T19:54:53.924Z,10.26
2023-03-30T19:57:20.265Z,10.31
2023-03-30T19:59:46.896Z,10.34
2023-03-30T20:02:13.277Z,10.33
2023-03-30T20:04:39.506Z,10.35
2023-03-30T20:07:05.720Z,10.33
2023-03-30T20:09:31.964Z,10.36
2023-03-30T20:11:58.191Z,10.35
2023-03-30T20:14:24.617Z,10.39
2023-03-30T20:16:51.093Z,10.39
2023-03-30T20:19:29.059Z,10.38
2023-03-30T20:21:56.176Z,10.47
2023-03-30T20:24:22.646Z,10.44
2023-03-30T20:26:48.858Z,10.42
2023-03-30T20:29:15.092Z,10.40
2023-03-30T20:31:41.327Z,10.41
2023-03-30T20:34:07.536Z,10.40
2023-03-30T20:36:33.773Z,10.41
2023-03-30T20:38:59.997Z,10.36
2023-03-30T20:41:26.208Z,10.33
2023-03-30T20:43:56.389Z,10.30
2023-03-30T20:46:23.728Z,10.31
2023-03-30T20:48:49.961Z,10.23
2023-03-30T20:51:16.189Z,10.21
2023-03-30T20:53:42.411Z,10.13
2023-03-30T20:56:08.730Z,10.14
2023-03-30T20:58:35.668Z,10.14
2023-03-30T21:01:03.118Z,10.14
2023-03-30T21:03:29.525Z,10.12
2023-03-30T21:06:05.111Z,10.20
2023-03-30T21:08:31.597Z,10.19
2023-03-30T21:10:57.792Z,10.13
2023-03-30T21:13:24.008Z,10.15
2023-03-30T21:15:59.835Z,10.12
2023-03-30T21:18:26.054Z,10.15
2023-03-30T21:20:52.271Z,10.14
2023-03-30T21:23:18.477Z,10.18
2023-03-30T21:25:44.726Z,10.15
2023-03-30T21:28:11.056Z,10.13
2023-03-30T21:30:37.268Z,10.11
2023-03-30T21:33:03.622Z,10.15
2023-03-30T21:35:29.919Z,10.16
2023-03-30T21:37:56.138Z,10.18
2023-03-30T21:40:22.397Z,10.19
2023-03-30T21:42:48.627Z,10.21
2023-03-30T21:45:14.835Z,10.19
2023-03-30T21:47:41.081Z,10.19
2023-03-30T21:50:07.502Z,10.21
2023-03-30T21:52:33.702Z,10.23
2023-03-30T21:54:59.901Z,10.30
2023-03-30T21:57:26.232Z,10.28
2023-03-30T21:59:52.587Z,10.24
2023-03-30T22:02:18.801Z,10.24
2023-03-30T22:04:45.002Z,10.22
2023-03-30T22:07:11.296Z,10.20
2023-03-30T22:09:37.498Z,10.18
2023-03-30T22:12:03.763Z,10.23
2023-03-30T22:14:29.978Z,10.21
2023-03-30T22:16:56.182Z,10.19
2023-03-30T22:19:22.387Z,10.16
2023-03-30T22:21:48.821Z,10.15
2023-03-30T22:24:15.018Z,10.12
2023-03-30T22:26:41.223Z,10.11
2023-03-30T22:29:07.433Z,10.10
2023-03-30T22:31:33.652Z,10.10
2023-03-30T22:33:59.885Z,10.09
2023-03-30T22:36:26.627Z,10.05
2023-03-30T22:38:52.863Z,10.10
2023-03-30T22:41:19.102Z,10.10
2023-03-30T22:43:45.311Z,10.10
2023-03-30T22:46:11.869Z,10.06
2023-03-30T22:48:38.296Z,10.06
2023-03-30T22:51:04.609Z,10.11
2023-03-30T22:53:31.140Z,10.07
2023-03-30T22:55:57.347Z,10.06
2023-03-30T22:58:23.553Z,10.08
2023-03-30T23:00:49.772Z,10.11
2023-03-30T23:03:16.121Z,10.11
2023-03-30T23:05:42.375Z,10.10
2023-03-30T23:08:08.672Z,10.08
2023-03-30T23:10:34.875Z,10.05
2023-03-30T23:13:01.088Z,10.03
2023-03-30T23:15:27.284Z,10.04
2023-03-30T23:17:53.509Z,10.05
2023-03-30T23:20:19.720Z,10.07
2023-03-30T23:22:45.927Z,10.04
2023-03-30T23:25:12.123Z,10.03
2023-03-30T23:27:38.343Z,10.03
2023-03-30T23:30:05.142Z,9.95
2023-03-30T23:32:31.399Z,9.89
2023-03-30T23:34:57.684Z,9.86
2023-03-30T23:37:23.895Z,9.89
2023-03-30T23:39:50.171Z,9.91
2023-03-30T23:42:16.388Z,9.92
2023-03-30T23:44:42.634Z,9.96
2023-03-30T23:47:09.228Z,10.01
2023-03-30T23:49:35.446Z,10.01
2023-03-30T23:52:01.647Z,10.03
2023-03-30T23:54:27.858Z,10.03
2023-03-30T23:56:54.072Z,10.01
2023-03-30T23:59:20.328Z,10.03
